Flight Track Log - Related Links

Times and Time Zones

All times are in EDT time to prevent confusion due to time zone crossing. See the UAL139 flight status page for this flight to view local times or setup timezone preferences in your user account.

Time Position Orientation Groundspeed Altitude Reporting Facility
EDT Latitude Longitude Course Direction KTS MPH feet Rate Location/Type
Thu 02:55:13 PM 39.8730 -104.6960 353° North 175 201 5,100  Level FlightAware ADS-B
Thu 02:55:37 PM 39.8960 -104.6960 360° North 213 245 5,400 1,552 Climbing FlightAware ADS-B
Thu 02:56:11 PM 39.9310 -104.7000 355° North 232 267 6,600 1,552 Climbing FlightAware ADS-B
Thu 02:56:35 PM 39.9580 -104.7070 349° North 257 296 6,900 900 Climbing FlightAware ADS-B
Thu 02:56:51 PM 39.9760 -104.7130 346° North 273 314 7,200 1,313 Climbing FlightAware ADS-B
Thu 02:57:07 PM 39.9970 -104.7180 350° North 284 327 7,600 1,946 Climbing FlightAware ADS-B
Thu 02:57:28 PM 40.0240 -104.7260 347° North 290 334 8,400 2,217 Climbing FlightAware ADS-B
Thu 02:57:53 PM 40.0570 -104.7370 346° North 291 335 9,300 1,932 Climbing FlightAware ADS-B
Thu 02:58:27 PM 40.1030 -104.7580 341° North 313 360 10,300 2,091 Climbing FlightAware ADS-B
Thu 02:58:59 PM 40.1450 -104.7780 340° North 316 364 11,600 1,636 Climbing FlightAware ADS-B
Thu 02:59:33 PM 40.1930 -104.8000 341° North 350 403 12,100 1,412 Climbing FlightAware ADS-B
Thu 03:00:07 PM 40.2490 -104.8260 340° North 364 419 13,200 2,000 Climbing FlightAware ADS-B
Thu 03:00:45 PM 40.3110 -104.8550 340° North 373 429 14,500 2,027 Climbing FlightAware ADS-B
Thu 03:01:21 PM 40.3680 -104.8810 341° North 381 438 15,700 2,029 Climbing FlightAware ADS-B
Thu 03:01:53 PM 40.4210 -104.9060 340° North 387 445 16,800 1,969 Climbing FlightAware ADS-B
Thu 03:02:25 PM 40.4750 -104.9310 341° North 395 455 17,800 2,000 Climbing FlightAware ADS-B
Thu 03:03:05 PM 40.5480 -104.9660 340° North 401 461 19,200 1,895 Climbing FlightAware ADS-B
Thu 03:03:41 PM 40.6110 -104.9950 341° North 410 472 20,200 1,543 Climbing FlightAware ADS-B
Thu 03:04:15 PM 40.6720 -105.0240 340° North 418 481 21,000 1,545 Climbing FlightAware ADS-B
Thu 03:04:47 PM 40.7290 -105.0510 340° North 422 486 21,900 1,652 Climbing FlightAware ADS-B
Thu 03:05:24 PM 40.7930 -105.0990 330° Northwest 425 489 22,900 1,457 Climbing FlightAware ADS-B
Thu 03:05:57 PM 40.8430 -105.1560 319° Northwest 431 496 23,600 1,364 Climbing FlightAware ADS-B
Thu 03:06:30 PM 40.8920 -105.2120 319° Northwest 436 502 24,400 1,417 Climbing FlightAware ADS-B
Thu 03:07:09 PM 40.9540 -105.2810 320° Northwest 441 507 25,300 1,421 Climbing FlightAware ADS-B
Thu 03:07:46 PM 41.0100 -105.3450 319° Northwest 446 513 26,200 1,333 Climbing FlightAware ADS-B
Thu 03:08:21 PM 41.0650 -105.4090 319° Northwest 448 516 26,900 1,200 Climbing FlightAware ADS-B
Thu 03:08:56 PM 41.1190 -105.4700 320° Northwest 453 521 27,600 1,200 Climbing FlightAware ADS-B
Thu 03:09:31 PM 41.1680 -105.5440 311° West 453 521 28,300 1,200 Climbing FlightAware ADS-B
Thu 03:10:01 PM 41.2060 -105.6110 307° West 457 526 28,900 1,147 Climbing FlightAware ADS-B
Thu 03:10:39 PM 41.2550 -105.6980 307° West 462 532 29,600 1,015 Climbing FlightAware ADS-B
Thu 03:11:06 PM 41.2860 -105.7590 304° West 467 537 30,000 930 Climbing FlightAware ADS-B
Thu 03:11:50 PM 41.3430 -105.8620 306° West 472 543 30,700 1,037 Climbing FlightAware ADS-B
Thu 03:12:27 PM 41.3940 -105.9510 307° West 474 545 31,400 985 Climbing FlightAware ADS-B
Thu 03:12:57 PM 41.4340 -106.0220 307° West 475 547 31,800 857 Climbing FlightAware ADS-B
Thu 03:13:37 PM 41.4820 -106.1090 306° West 478 550 32,400 904 Climbing FlightAware ADS-B
Thu 03:14:10 PM 41.5280 -106.1920 307° West 482 555 32,900 845 Climbing FlightAware ADS-B
Thu 03:14:48 PM 41.5780 -106.2820 307° West 484 557 33,400 1,031 Climbing FlightAware ADS-B
Thu 03:15:14 PM 41.6130 -106.3460 306° West 481 554 34,000 554 Climbing FlightAware ADS-B
Thu 03:15:53 PM 41.6560 -106.4260 306° West 481 554 34,000  Level FlightAware ADS-B
Thu 03:16:31 PM 41.6990 -106.5040 306° West 481 554 34,000  Level FlightAware ADS-B
Thu 03:17:07 PM 41.7390 -106.5780 306° West 481 554 34,000  Level FlightAware ADS-B
Thu 03:17:44 PM 41.7800 -106.6530 306° West 481 554 34,000  Level FlightAware ADS-B
Thu 03:18:19 PM 41.8190 -106.7250 306° West 481 554 34,000  Level FlightAware ADS-B
Thu 03:18:55 PM 41.8590 -106.7990 306° West 481 554 34,000  Level FlightAware ADS-B
Thu 03:19:31 PM 41.8990 -106.8730 306° West 481 554 34,000  Level FlightAware ADS-B
Thu 03:20:08 PM 41.9400 -106.9490 306° West 481 554 34,000  Level FlightAware ADS-B
Thu 03:20:45 PM 41.9810 -107.0250 306° West 481 554 34,000  Level FlightAware ADS-B
Thu 03:21:21 PM 42.0210 -107.1000 306° West 481 554 34,000  Level FlightAware ADS-B
Thu 03:21:57 PM 42.0610 -107.1740 306° West 481 554 34,000  Level FlightAware ADS-B
Thu 03:22:34 PM 42.1020 -107.2500 306° West 481 554 34,000  Level FlightAware ADS-B
Thu 03:23:10 PM 42.1420 -107.3240 306° West 481 554 34,000  Level FlightAware ADS-B
Thu 03:23:46 PM 42.1820 -107.3990 306° West 481 554 34,000  Level FlightAware ADS-B
Thu 03:24:22 PM 42.2220 -107.4730 306° West 481 554 34,000  Level FlightAware ADS-B
Thu 03:24:58 PM 42.2620 -107.5480 306° West 481 554 34,000 2,791 Level FlightAware ADS-B
Thu 03:25:48 PM 42.4061 -107.8200 306° West 461 531 38,000 2,143 Climbing Salt Lake Center
Thu 03:26:50 PM 42.4875 -107.9775 305° West 459 528 38,000  Level Salt Lake Center
Thu 03:27:52 PM 42.5589 -108.1131 306° West 462 532 38,000  Level Salt Lake Center
Thu 03:28:54 PM 42.6403 -108.2711 305° West 460 529 38,000  Level Salt Lake Center
Thu 03:29:56 PM 42.7103 -108.4081 305° West 463 533 38,000  Level Salt Lake Center
Thu 03:30:58 PM 42.7925 -108.5669 305° West 462 532 38,000  Level Salt Lake Center
Thu 03:32:00 PM 42.8619 -108.7036 305° West 460 529 38,000  Level Salt Lake Center
Thu 03:33:02 PM 42.9422 -108.8614 305° West 456 525 38,000  Level Salt Lake Center
Thu 03:34:04 PM 43.0069 -108.9900 305° West 456 525 38,000  Level Salt Lake Center
Thu 03:35:06 PM 43.0786 -109.1333 304° West 457 526 38,000  Level Salt Lake Center
Thu 03:36:08 PM 43.1661 -109.3083 304° West 463 533 38,000  Level Salt Lake Center
Thu 03:37:10 PM 43.2372 -109.4492 305° West 456 525 38,000  Level Salt Lake Center
Thu 03:38:12 PM 43.3086 -109.5944 304° West 458 527 38,000  Level Salt Lake Center
Thu 03:39:14 PM 43.3806 -109.7392 304° West 458 527 38,000  Level Salt Lake Center
Thu 03:40:16 PM 43.4578 -109.8911 305° West 456 525 38,000  Level Salt Lake Center
Thu 03:41:18 PM 43.5244 -110.0308 303° West 457 526 38,000  Level Salt Lake Center
Thu 03:42:20 PM 43.6047 -110.1936 304° West 462 532 38,000  Level Salt Lake Center
Thu 03:43:22 PM 43.6733 -110.3339 304° West 461 531 38,000  Level Salt Lake Center
Thu 03:44:24 PM 43.7519 -110.4997 303° West 461 531 38,000  Level Salt Lake Center
Thu 03:45:26 PM 43.8186 -110.6442 303° West 465 535 38,000  Level Salt Lake Center
Thu 03:46:28 PM 43.8986 -110.8072 304° West 459 528 38,000  Level Salt Lake Center
Thu 03:47:30 PM 43.9661 -110.9497 303° West 461 531 38,000  Level Salt Lake Center
Thu 03:48:32 PM 44.0433 -111.1150 303° West 457 526 38,000  Level Salt Lake Center
Thu 03:49:34 PM 44.1103 -111.2569 303° West 457 526 38,000  Level Salt Lake Center
Thu 03:50:37 PM 44.1756 -111.3997 303° West 454 522 38,000  Level Salt Lake Center
Thu 03:51:39 PM 44.2544 -111.5675 303° West 458 527 38,000  Level Salt Lake Center
Thu 03:52:41 PM 44.3208 -111.7139 302° West 461 531 38,000  Level Salt Lake Center
Thu 03:53:43 PM 44.3992 -111.8825 303° West 460 529 38,000  Level Salt Lake Center
Thu 03:54:45 PM 44.4653 -112.0275 303° West 459 528 38,000  Level Salt Lake Center
Thu 03:55:47 PM 44.5422 -112.1958 303° West 458 527 38,000  Level Salt Lake Center
Thu 03:56:49 PM 44.6086 -112.3406 303° West 459 528 38,000  Level Salt Lake Center
Thu 03:57:51 PM 44.6558 -112.4953 293° West 455 524 38,000  Level Salt Lake Center
Thu 03:58:53 PM 44.7078 -112.6747 292° West 447 514 38,000  Level Salt Lake Center
Thu 03:59:55 PM 44.7533 -112.8300 292° West 448 516 38,000  Level Salt Lake Center
Thu 04:00:57 PM 44.8283 -113.0028 302° West 458 527 38,000  Level Salt Lake Center
Thu 04:01:59 PM 44.8928 -113.1497 302° West 460 529 38,000  Level Salt Lake Center
Thu 04:03:00 PM 44.9708 -113.3197 303° West 461 531 38,000  Level Salt Lake Center
Thu 04:04:02 PM 45.0381 -113.4661 303° West 463 533 38,000  Level Salt Lake Center
Thu 04:05:04 PM 45.1147 -113.6369 302° West 461 531 38,000  Level Salt Lake Center
Thu 04:06:07 PM 45.1817 -113.7828 303° West 461 531 38,000  Level Salt Lake Center
Thu 04:07:09 PM 45.2597 -113.9528 303° West 461 531 38,000  Level Salt Lake Center
Thu 04:08:11 PM 45.3294 -114.0972 305° West 462 532 38,000  Level Salt Lake Center
Thu 04:09:13 PM 45.4050 -114.2708 302° West 461 531 38,000  Level Salt Lake Center
Thu 04:10:15 PM 45.4683 -114.4200 301° West 460 529 38,000  Level Salt Lake Center
Thu 04:15:46 PM 45.8290 -115.2870 301° West 453 521 38,000  Level FlightAware ADS-B
Thu 04:16:22 PM 45.8670 -115.3800 300° West 455 524 38,000  Level FlightAware ADS-B
Thu 04:16:54 PM 45.9020 -115.4660 300° West 455 524 38,000  Level FlightAware ADS-B
Thu 04:17:34 PM 45.9450 -115.5700 301° West 454 522 38,000  Level FlightAware ADS-B
Thu 04:18:06 PM 45.9780 -115.6510 300° West 456 525 38,000  Level FlightAware ADS-B
Thu 04:18:42 PM 46.0160 -115.7460 300° West 457 526 38,000  Level FlightAware ADS-B
Thu 04:19:18 PM 46.0550 -115.8430 300° West 456 525 38,000  Level FlightAware ADS-B
Thu 04:19:50 PM 46.0880 -115.9250 300° West 452 520 38,000  Level FlightAware ADS-B
Thu 04:20:26 PM 46.1250 -116.0180 300° West 453 521 38,000  Level FlightAware ADS-B
Thu 04:21:04 PM 46.1630 -116.1130 300° West 454 522 38,000  Level FlightAware ADS-B
Thu 04:21:36 PM 46.1980 -116.2000 300° West 457 526 38,000  Level FlightAware ADS-B
Thu 04:22:14 PM 46.2380 -116.3030 299° West 459 528 38,000  Level FlightAware ADS-B
Thu 04:22:47 PM 46.2690 -116.3820 300° West 460 529 38,000  Level FlightAware ADS-B
Thu 04:23:24 PM 46.3010 -116.4660 299° West 460 529 38,000  Level FlightAware ADS-B
Thu 04:24:01 PM 46.3330 -116.5510 299° West 460 529 38,000  Level FlightAware ADS-B
Thu 04:24:39 PM 46.3670 -116.6380 300° West 460 529 38,000  Level FlightAware ADS-B
Thu 04:25:16 PM 46.4310 -116.7950 301° West 471 542 38,000  Level FlightAware ADS-B
Thu 04:25:54 PM 46.4680 -116.8910 299° West 471 542 38,000  Level FlightAware ADS-B
Thu 04:26:30 PM 46.5000 -116.9750 299° West 471 542 38,000  Level FlightAware ADS-B
Thu 04:27:07 PM 46.5340 -117.0620 300° West 471 542 38,000  Level FlightAware ADS-B
Thu 04:27:43 PM 46.5660 -117.1470 299° West 471 542 38,000  Level FlightAware ADS-B
Thu 04:28:21 PM 46.6000 -117.2370 299° West 471 542 38,000  Level FlightAware ADS-B
Thu 04:28:57 PM 46.6320 -117.3220 299° West 471 542 38,000  Level FlightAware ADS-B
Thu 04:29:31 PM 46.6630 -117.4020 299° West 471 542 38,000  Level FlightAware ADS-B
Thu 04:30:08 PM 46.6960 -117.4890 299° West 471 542 38,000  Level FlightAware ADS-B
Thu 04:30:45 PM 46.7290 -117.5770 299° West 471 542 38,000  Level FlightAware ADS-B
Thu 04:31:21 PM 46.7620 -117.6620 300° West 471 542 38,000  Level FlightAware ADS-B
Thu 04:31:59 PM 46.8570 -117.9120 299° West 483 556 38,000  Level FlightAware ADS-B
Thu 04:32:42 PM 46.9050 -118.0430 298° West 482 555 38,000  Level FlightAware ADS-B
Thu 04:33:17 PM 46.9400 -118.1370 299° West 481 554 38,000  Level FlightAware ADS-B
Thu 04:33:57 PM 46.9850 -118.2590 298° West 481 554 38,000  Level FlightAware ADS-B
Thu 04:34:32 PM 47.0230 -118.3620 298° West 483 556 38,000  Level FlightAware ADS-B
Thu 04:35:07 PM 47.0550 -118.4500 298° West 485 558 38,000  Level FlightAware ADS-B
Thu 04:35:42 PM 47.0920 -118.5510 298° West 485 558 38,000  Level FlightAware ADS-B
Thu 04:36:17 PM 47.1330 -118.6640 298° West 486 559 38,000  Level FlightAware ADS-B
Thu 04:36:59 PM 47.1787 -118.7900 298° West 487 560 38,000  Level FlightAware ADS-B
Thu 04:37:31 PM 47.2126 -118.8840 298° West 490 564 38,000  Level FlightAware ADS-B
Thu 04:38:02 PM 47.2453 -118.9760 298° West 489 563 38,000  Level FlightAware ADS-B
Thu 04:38:33 PM 47.2773 -119.0650 298° West 485 558 38,000  Level FlightAware ADS-B
Thu 04:39:03 PM 47.3087 -119.1540 298° West 483 556 38,000  Level FlightAware ADS-B
Thu 04:39:35 PM 47.3414 -119.2450 298° West 482 555 38,000  Level FlightAware ADS-B
Thu 04:40:07 PM 47.3745 -119.3390 298° West 483 556 38,000  Level FlightAware ADS-B
Thu 04:40:37 PM 47.4055 -119.4270 298° West 486 559 38,000  Level FlightAware ADS-B
Thu 04:41:08 PM 47.4372 -119.5170 298° West 486 559 38,000  Level FlightAware ADS-B
Thu 04:41:38 PM 47.4689 -119.6080 297° West 488 562 38,000  Level FlightAware ADS-B
Thu 04:42:10 PM 47.5020 -119.7020 298° West 489 563 38,000  Level FlightAware ADS-B
Thu 04:42:40 PM 47.5333 -119.7920 297° West 492 566 38,000  Level FlightAware ADS-B
Thu 04:43:11 PM 47.5650 -119.8840 297° West 493 567 38,000  Level FlightAware ADS-B
Thu 04:43:41 PM 47.5960 -119.9730 297° West 492 566 38,000  Level FlightAware ADS-B
Thu 04:44:12 PM 47.6275 -120.0650 297° West 490 564 38,000  Level FlightAware ADS-B
Thu 04:44:50 PM 47.6671 -120.1800 297° West 487 560 38,000  Level FlightAware ADS-B
Thu 04:45:21 PM 47.6977 -120.2700 297° West 486 559 38,000  Level FlightAware ADS-B
Thu 04:45:51 PM 47.7282 -120.3600 297° West 486 559 38,000  Level FlightAware ADS-B
Thu 04:46:21 PM 47.7582 -120.4480 297° West 484 557 38,000  Level FlightAware ADS-B
Thu 04:46:52 PM 47.7892 -120.5400 297° West 485 558 38,000  Level FlightAware ADS-B
Thu 04:47:22 PM 47.8196 -120.6300 297° West 487 560 38,000  Level FlightAware ADS-B
Thu 04:47:52 PM 47.8496 -120.7200 296° West 487 560 38,000  Level FlightAware ADS-B
Thu 04:48:22 PM 47.8801 -120.8110 297° West 486 559 38,000  Level FlightAware ADS-B
Thu 04:48:53 PM 47.9103 -120.9010 297° West 484 557 38,000  Level FlightAware ADS-B
Thu 04:49:23 PM 47.9402 -120.9910 296° West 484 557 38,000  Level FlightAware ADS-B
Thu 04:49:53 PM 47.9703 -121.0830 296° West 483 556 38,000  Level FlightAware ADS-B
Thu 04:50:24 PM 47.9999 -121.1720 296° West 481 554 38,000  Level FlightAware ADS-B
Thu 04:50:54 PM 48.0293 -121.2620 296° West 483 556 38,000  Level FlightAware ADS-B
Thu 04:51:24 PM 48.0588 -121.3520 296° West 483 556 38,000  Level FlightAware ADS-B
Thu 04:51:55 PM 48.0894 -121.4450 296° West 485 558 38,000  Level FlightAware ADS-B
Thu 04:52:25 PM 48.1191 -121.5370 296° West 485 558 38,000  Level FlightAware ADS-B
Thu 04:52:55 PM 48.1483 -121.6270 296° West 484 557 38,000  Level FlightAware ADS-B
Thu 04:53:25 PM 48.1774 -121.7170 296° West 482 555 38,000  Level FlightAware ADS-B
Thu 04:53:56 PM 48.2065 -121.8080 296° West 483 556 38,000  Level FlightAware ADS-B
Thu 04:54:26 PM 48.2356 -121.8990 296° West 481 554 38,000  Level FlightAware ADS-B
Thu 04:54:56 PM 48.2647 -121.9900 296° West 478 550 38,000  Level FlightAware ADS-B
Thu 04:55:27 PM 48.2940 -122.0810 296° West 478 550 38,000  Level FlightAware ADS-B
Thu 04:55:44 PM 48.3094 -122.1310 295° West 478 550 38,000  Level FlightAware ADS-B
Thu 04:56:30 PM 48.3534 -122.2700 296° West 480 552 38,000  Level FlightAware ADS-B
Thu 04:57:00 PM 48.3821 -122.3610 295° West 479 551 38,000  Level FlightAware ADS-B
Thu 04:57:33 PM 48.4128 -122.4590 295° West 480 552 38,000  Level FlightAware ADS-B
Thu 04:58:03 PM 48.4410 -122.5490 295° West 479 551 38,000  Level FlightAware ADS-B
Thu 04:58:42 PM 48.4777 -122.6670 295° West 478 550 38,000  Level FlightAware ADS-B
Thu 04:59:12 PM 48.5058 -122.7580 295° West 477 549 38,000  Level FlightAware ADS-B
Thu 04:59:43 PM 48.5343 -122.8500 295° West 480 552 38,000  Level FlightAware ADS-B
Thu 05:00:13 PM 48.5623 -122.9410 295° West 481 554 38,000  Level FlightAware ADS-B
Thu 05:00:43 PM 48.5905 -123.0340 295° West 480 552 38,000  Level FlightAware ADS-B
Thu 05:01:13 PM 48.6184 -123.1250 295° West 481 554 38,000  Level FlightAware ADS-B
Thu 05:01:44 PM 48.6468 -123.2190 295° West 482 555 38,000  Level FlightAware ADS-B
Thu 05:02:25 PM 48.6851 -123.3450 295° West 482 555 38,000  Level FlightAware ADS-B
Thu 05:02:50 PM 48.7083 -123.4220 295° West 480 552 38,000  Level FlightAware ADS-B
Thu 05:03:37 PM 48.7560 -123.5550 299° West 485 558 38,000  Level FlightAware ADS-B
Thu 05:04:13 PM 48.7970 -123.6590 301° West 487 560 38,000  Level FlightAware ADS-B
Thu 05:04:49 PM 48.8410 -123.7680 302° West 487 560 38,000  Level FlightAware ADS-B
Thu 05:04:59 PM 48.8532 -123.7990 301° West 487 560 38,000  Level FlightAware ADS-B
Thu 05:05:29 PM 48.8882 -123.8880 301° West 488 562 38,000  Level FlightAware ADS-B
Thu 05:05:59 PM 48.9230 -123.9750 301° West 487 560 38,000  Level FlightAware ADS-B
Thu 05:06:49 PM 48.9804 -124.1210 301° West 486 559 38,000  Level FlightAware ADS-B
Thu 05:07:20 PM 49.0155 -124.2100 301° West 487 560 38,000  Level FlightAware ADS-B
Thu 05:07:51 PM 49.0513 -124.3020 301° West 488 562 38,000  Level FlightAware ADS-B
Thu 05:08:21 PM 49.0859 -124.3910 301° West 489 563 38,000  Level FlightAware ADS-B
Thu 05:09:27 PM 49.1618 -124.5860 301° West 489 563 38,000  Level FlightAware ADS-B
Thu 05:09:58 PM 49.1971 -124.6780 300° West 490 564 38,000  Level FlightAware ADS-B
Thu 05:10:32 PM 49.2367 -124.7810 301° West 491 565 38,000  Level FlightAware ADS-B
Thu 05:11:41 PM 49.3160 -124.9870 301° West 494 568 38,000  Level FlightAware ADS-B
Thu 05:12:19 PM 49.3590 -125.1010 300° West 493 567 38,000  Level FlightAware ADS-B
Thu 05:12:52 PM 49.3960 -125.1990 300° West 494 568 38,000  Level FlightAware ADS-B
Thu 05:13:25 PM 49.4340 -125.3000 300° West 494 568 38,000  Level FlightAware ADS-B
Thu 05:14:01 PM 49.4750 -125.4090 300° West 495 570 38,000  Level FlightAware ADS-B
Thu 05:14:36 PM 49.5150 -125.5170 300° West 495 570 38,000  Level FlightAware ADS-B
Thu 05:15:12 PM 49.5560 -125.6260 300° West 496 571 38,000  Level FlightAware ADS-B
Thu 05:15:48 PM 49.5970 -125.7370 300° West 497 572 38,000  Level FlightAware ADS-B
Thu 05:16:20 PM 49.6330 -125.8340 300° West 498 573 38,000  Level FlightAware ADS-B
Thu 05:16:56 PM 49.6740 -125.9470 299° West 497 572 38,000  Level FlightAware ADS-B
Thu 05:17:30 PM 49.7120 -126.0500 300° West 500 575 38,000  Level FlightAware ADS-B
Thu 05:18:04 PM 49.7500 -126.1540 300° West 502 578 38,000  Level FlightAware ADS-B
Thu 05:18:40 PM 49.7910 -126.2670 299° West 502 578 38,000  Level FlightAware ADS-B
Thu 05:19:18 PM 49.8350 -126.3880 299° West 501 577 38,000  Level FlightAware ADS-B
Thu 05:20:06 PM 49.8840 -126.5250 299° West 501 577 38,000  Level FlightAware ADS-B
Thu 05:20:42 PM 49.9180 -126.6220 299° West 501 577 38,000  Level FlightAware ADS-B
Thu 05:21:15 PM 49.9620 -126.7450 299° West 501 577 38,000  Level FlightAware ADS-B
Thu 05:21:50 PM 50.0020 -126.8560 299° West 501 577 38,000  Level FlightAware ADS-B
Thu 05:22:30 PM 50.0460 -126.9810 299° West 501 577 38,000  Level FlightAware ADS-B
Thu 05:23:08 PM 50.0820 -127.0830 299° West 501 577 38,000  Level FlightAware ADS-B
Thu 05:23:36 PM 50.1210 -127.1950 299° West 504 580 38,000  Level FlightAware ADS-B
Thu 05:24:18 PM 50.1610 -127.3090 299° West 504 580 38,000  Level FlightAware ADS-B
Thu 05:25:10 PM 50.2220 -127.4840 299° West 504 580 38,000  Level FlightAware ADS-B
Thu 05:25:48 PM 50.2590 -127.5880 299° West 504 580 38,000  Level FlightAware ADS-B
Thu 05:26:24 PM 50.2930 -127.6850 299° West 504 580 38,000  Level FlightAware ADS-B
Thu 05:27:02 PM 50.3250 -127.8470 287° West 502 578 38,000  Level FlightAware ADS-B
Thu 05:27:48 PM 50.3600 -127.9780 293° West 502 578 38,000  Level FlightAware ADS-B
Thu 05:28:25 PM 50.3890 -128.0830 293° West 502 578 38,000  Level FlightAware ADS-B
Thu 05:29:01 PM 50.4170 -128.1860 293° West 502 578 38,000  Level FlightAware ADS-B
Thu 05:29:37 PM 50.4440 -128.2890 292° West 502 578 38,000  Level FlightAware ADS-B
Thu 05:30:14 PM 50.4730 -128.3940 293° West 502 578 38,000  Level FlightAware ADS-B
Thu 05:30:52 PM 50.5020 -128.5030 293° West 502 578 38,000  Level FlightAware ADS-B
Thu 05:31:26 PM 50.5280 -128.6000 293° West 502 578 38,000  Level FlightAware ADS-B
Thu 05:32:02 PM 50.5560 -128.7030 293° West 502 578 38,000  Level FlightAware ADS-B
Thu 05:32:37 PM 50.5830 -128.8030 293° West 502 578 38,000  Level FlightAware ADS-B
Thu 05:33:14 PM 50.6120 -128.9090 293° West 502 578 38,000  Level FlightAware ADS-B
Thu 05:33:50 PM 50.6390 -129.0120 292° West 502 578 38,000  Level FlightAware ADS-B
Thu 05:34:26 PM 50.6670 -129.1160 293° West 502 578 38,000  Level FlightAware ADS-B
Thu 05:35:02 PM 50.6950 -129.2190 293° West 502 578 38,000  Level FlightAware ADS-B
Thu 05:35:38 PM 50.7230 -129.3220 293° West 502 578 38,000  Level FlightAware ADS-B
Thu 05:36:15 PM 50.7510 -129.4280 293° West 502 578 38,000  Level FlightAware ADS-B
Thu 05:36:52 PM 50.8167 -129.8833 293° West 500 575 38,000  Level Vancouver Center
Thu 05:37:52 PM 50.8500 -130.1000 284° West 500 575 38,000  Level Vancouver Center
Thu 05:38:52 PM 50.9167 -130.3000 298° West 500 575 38,000  Level Vancouver Center
Thu 05:39:52 PM 50.9667 -130.5167 290° West 500 575 38,000  Level Vancouver Center
Thu 05:40:52 PM 51.0000 -130.7000 286° West 500 575 38,000  Level Vancouver Center
Thu 05:41:52 PM 51.0500 -130.9167 290° West 500 575 38,000  Level Vancouver Center
Thu 05:42:52 PM 51.1000 -131.1167 292° West 500 575 38,000  Level Vancouver Center
Thu 05:43:52 PM 51.1500 -131.3333 290° West 500 575 38,000  Level Vancouver Center
Thu 05:44:52 PM 51.1833 -131.5333 285° West 470 541 38,000  Level Vancouver Center
Thu 05:45:52 PM 51.2500 -131.7333 298° West 490 564 38,000  Level Vancouver Center
Thu 05:46:52 PM 51.2833 -131.9500 284° West 490 564 38,000  Level Vancouver Center
Thu 05:47:52 PM 51.3333 -132.1500 292° West 490 564 38,000  Level Vancouver Center
Thu 05:48:52 PM 51.3667 -132.3667 284° West 500 575 38,000  Level Vancouver Center
Thu 05:49:52 PM 51.4167 -132.5667 292° West 490 564 38,000  Level Vancouver Center
Thu 05:50:52 PM 51.4500 -132.7667 285° West 490 564 38,000  Level Vancouver Center
Thu 05:51:52 PM 51.5000 -132.9833 290° West 490 564 38,000  Level Vancouver Center
Thu 05:52:52 PM 51.5333 -133.1833 285° West 490 564 38,000  Level Vancouver Center
Thu 05:53:52 PM 51.5833 -133.4167 289° West 490 564 38,000  Level Vancouver Center
Thu 05:54:52 PM 51.6167 -133.6000 286° West 490 564 38,000  Level Vancouver Center
Thu 05:55:52 PM 51.6667 -133.8333 289° West 500 575 38,000  Level Vancouver Center
Thu 05:56:52 PM 51.7000 -134.0333 285° West 490 564 38,000  Level Vancouver Center
Thu 05:57:52 PM 51.7500 -134.2667 289° West 500 575 38,000  Level Vancouver Center
Thu 05:58:52 PM 51.7833 -134.4500 286° West 470 541 38,000  Level Vancouver Center
Thu 05:59:52 PM 51.8167 -134.6333 286° West 480 552 38,000  Level Vancouver Center
Thu 06:01:00 PM 51.8638 -134.8611 289° West  Level FlightAware Approximate
Thu 06:04:17 PM 52.0000 -135.4500 292° West 478 550 38,000  Level Oakland Oceanic (ODAPS)
Thu 06:05:54 PM 52.1000 -135.8333 291° West 476 548 38,000  Level Oakland Oceanic (ODAPS)
Thu 06:08:00 PM 52.1785 -136.2411 290° West  Level FlightAware Approximate
Thu 06:09:00 PM 52.2228 -136.4421 290° West  Level FlightAware Approximate
Thu 06:10:00 PM 52.2899 -136.6702 291° West 478 550 38,000  Level FlightAware Transoceanic
Thu 06:11:00 PM 52.3370 -136.8751 291° West 478 550 38,000  Level FlightAware Transoceanic
Thu 06:12:00 PM 52.3853 -137.0653 290° West 476 548 38,000  Level FlightAware Transoceanic
Thu 06:12:31 PM 52.3833 -137.0833 290° West 479 551 38,000  Level Oakland Oceanic (ODAPS)
Thu 06:13:00 PM 52.4316 -137.2721 290° West 476 548 38,000  Level FlightAware Transoceanic
Thu 06:14:00 PM 52.4775 -137.4794 290° West 476 548 38,000  Level FlightAware Transoceanic
Thu 06:15:00 PM 52.5231 -137.6871 290° West 476 548 38,000  Level FlightAware Transoceanic
Thu 06:16:00 PM 52.5683 -137.8953 290° West 476 548 38,000  Level FlightAware Transoceanic
Thu 06:17:00 PM 52.6131 -138.1039 289° West 476 548 38,000  Level FlightAware Transoceanic
Thu 06:18:00 PM 52.6564 -138.3232 289° West 479 551 38,000  Level FlightAware Transoceanic
Thu 06:19:00 PM 52.7006 -138.5314 289° West 479 551 38,000  Level FlightAware Transoceanic
Thu 06:19:59 PM 52.7333 -138.6500 289° West 477 549 38,000  Level Oakland Oceanic (ODAPS)
Thu 06:20:00 PM 52.7445 -138.7399 289° West 479 551 38,000  Level FlightAware Transoceanic
Thu 06:21:00 PM 52.7880 -138.9489 289° West 479 551 38,000  Level FlightAware Transoceanic
Thu 06:22:00 PM 52.8311 -139.1583 289° West 479 551 38,000  Level FlightAware Transoceanic
Thu 06:23:00 PM 52.8739 -139.3681 289° West 479 551 38,000  Level FlightAware Transoceanic
Thu 06:24:00 PM 52.9163 -139.5783 288° West 479 551 38,000  Level FlightAware Transoceanic
Thu 06:25:00 PM 52.9583 -139.7890 288° West 479 551 38,000  Level FlightAware Transoceanic
Thu 06:26:00 PM 53.0000 -140.0000 284° West 477 549 38,000  Level FlightAware Transoceanic
Thu 06:26:36 PM 53.0000 -140.0000 284° West 475 547 38,000  Level Oakland Oceanic (ODAPS)
Thu 06:27:00 PM 53.0305 -140.2118 283° West 477 549 38,000  Level FlightAware Transoceanic
Thu 06:28:00 PM 53.0606 -140.4239 283° West 477 549 38,000  Level FlightAware Transoceanic
Thu 06:29:00 PM 53.0903 -140.6362 283° West 477 549 38,000  Level FlightAware Transoceanic
Thu 06:30:00 PM 53.1197 -140.8489 283° West 477 549 38,000  Level FlightAware Transoceanic
Thu 06:31:00 PM 53.1487 -141.0619 283° West 477 549 38,000  Level FlightAware Transoceanic
Thu 06:32:00 PM 53.1773 -141.2751 283° West 475 547 38,000  Level FlightAware Transoceanic
Thu 06:33:00 PM 53.2055 -141.4887 282° West 475 547 38,000  Level FlightAware Transoceanic
Thu 06:34:00 PM 53.2333 -141.7025 282° West 475 547 38,000  Level FlightAware Transoceanic
Thu 06:34:23 PM 53.2167 -141.5833 282° West 482 555 38,000  Level Oakland Oceanic (ODAPS)
Thu 06:35:00 PM 53.2608 -141.9165 282° West 475 547 38,000  Level FlightAware Transoceanic
Thu 06:36:00 PM 53.2878 -142.1309 282° West 475 547 38,000  Level FlightAware Transoceanic
Thu 06:37:00 PM 53.3145 -142.3455 282° West 475 547 38,000  Level FlightAware Transoceanic
Thu 06:38:00 PM 53.3408 -142.5604 281° West 475 547 38,000  Level FlightAware Transoceanic
Thu 06:39:00 PM 53.3667 -142.7756 281° West 475 547 38,000  Level FlightAware Transoceanic
Thu 06:40:00 PM 53.3835 -142.9253 281° West 482 555 38,000  Level FlightAware Transoceanic
Thu 06:41:00 PM 53.4099 -143.1500 281° West 482 555 38,000  Level FlightAware Transoceanic
Thu 06:42:00 PM 53.4358 -143.3750 281° West 482 555 38,000  Level FlightAware Transoceanic
Thu 06:43:00 PM 53.4613 -143.6002 281° West 482 555 38,000  Level FlightAware Transoceanic
Thu 06:44:00 PM 53.4863 -143.8257 280° West 482 555 38,000  Level FlightAware Transoceanic
Thu 06:45:00 PM 53.5110 -144.0514 280° West 482 555 38,000  Level FlightAware Transoceanic
Thu 06:46:00 PM 53.5352 -144.2774 280° West 482 555 38,000  Level FlightAware Transoceanic
Thu 06:47:00 PM 53.5590 -144.5037 280° West 482 555 38,000  Level FlightAware Transoceanic
Thu 06:47:39 PM 53.5833 -144.6833 280° West 495 570 38,000  Level Oakland Oceanic (ODAPS)
Thu 06:48:00 PM 53.5824 -144.7302 280° West 482 555 38,000  Level FlightAware Transoceanic
Thu 06:49:00 PM 53.6053 -144.9570 280° West 482 555 38,000  Level FlightAware Transoceanic
Thu 06:50:00 PM 53.6278 -145.1840 279° West 482 555 38,000  Level FlightAware Transoceanic
Thu 06:51:00 PM 53.6499 -145.4112 279° West 482 555 38,000  Level FlightAware Transoceanic
Thu 06:52:00 PM 53.6715 -145.6387 279° West 482 555 38,000  Level FlightAware Transoceanic
Thu 06:53:00 PM 53.7095 -146.0022 279° West 495 570 38,000  Level FlightAware Transoceanic
Thu 06:54:00 PM 53.7291 -146.2227 278° West 495 570 38,000  Level FlightAware Transoceanic
Thu 06:55:00 PM 53.7483 -146.4435 278° West 495 570 38,000  Level FlightAware Transoceanic
Thu 06:56:00 PM 53.7671 -146.6644 278° West 495 570 38,000  Level FlightAware Transoceanic
Thu 06:57:00 PM 53.7855 -146.8856 278° West 495 570 38,000  Level FlightAware Transoceanic
Thu 06:58:00 PM 53.8035 -147.1069 278° West 495 570 38,000  Level FlightAware Transoceanic
Thu 06:59:00 PM 53.8211 -147.3284 278° West 495 570 38,000  Level FlightAware Transoceanic
Thu 07:00:00 PM 53.8382 -147.5502 277° West 495 570 38,000  Level FlightAware Transoceanic
Thu 07:01:00 PM 53.8550 -147.7721 277° West 495 570 38,000  Level FlightAware Transoceanic
Thu 07:01:30 PM 53.8667 -147.9000 277° West 501 577 38,000  Level Oakland Oceanic (ODAPS)
Thu 07:02:00 PM 53.8713 -147.9941 277° West 495 570 38,000  Level FlightAware Transoceanic
Thu 07:03:00 PM 53.8873 -148.2164 277° West 495 570 38,000  Level FlightAware Transoceanic
Thu 07:04:00 PM 53.9028 -148.4388 277° West 495 570 38,000  Level FlightAware Transoceanic
Thu 07:05:00 PM 53.9179 -148.6614 276° West 495 570 38,000  Level FlightAware Transoceanic
Thu 07:06:00 PM 53.9327 -148.8841 276° West 495 570 38,000  Level FlightAware Transoceanic
Thu 07:07:00 PM 53.9596 -149.2985 276° West 501 577 38,000  Level FlightAware Transoceanic
Thu 07:08:00 PM 53.9735 -149.5322 276° West 501 577 38,000  Level FlightAware Transoceanic
Thu 07:09:00 PM 53.9870 -149.7660 275° West 501 577 38,000  Level FlightAware Transoceanic
Thu 07:10:00 PM 54.0000 -150.0000 256° West 501 577 38,000  Level FlightAware Transoceanic
Thu 07:10:32 PM 54.0000 -150.0000 256° West 499 574 38,000  Level Oakland Oceanic (ODAPS)
Thu 07:11:00 PM 53.9678 -150.2130 255° West 501 577 38,000  Level FlightAware Transoceanic
Thu 07:12:00 PM 53.9352 -150.4256 255° West 501 577 38,000  Level FlightAware Transoceanic
Thu 07:13:00 PM 53.9022 -150.6378 255° West 501 577 38,000  Level FlightAware Transoceanic
Thu 07:14:00 PM 53.8689 -150.8498 255° West 501 577 38,000  Level FlightAware Transoceanic
Thu 07:15:00 PM 53.8352 -151.0614 255° West 501 577 38,000  Level FlightAware Transoceanic
Thu 07:15:21 PM 53.8333 -151.1167 255° West 499 574 38,000  Level Oakland Oceanic (ODAPS)
Thu 07:16:00 PM 53.7877 -151.3552 255° West 499 574 38,000  Level FlightAware Transoceanic
Thu 07:17:00 PM 53.7508 -151.5797 254° West 499 574 38,000  Level FlightAware Transoceanic
Thu 07:18:00 PM 53.7135 -151.8039 254° West 499 574 38,000  Level FlightAware Transoceanic
Thu 07:19:00 PM 53.6758 -152.0276 254° West 499 574 38,000  Level FlightAware Transoceanic
Thu 07:20:00 PM 53.6377 -152.2509 254° West 499 574 38,000  Level FlightAware Transoceanic
Thu 07:21:00 PM 53.6072 -152.4625 254° West 499 574 38,000  Level FlightAware Transoceanic
Thu 07:22:00 PM 53.5680 -152.6854 253° West 499 574 38,000  Level FlightAware Transoceanic
Thu 07:23:00 PM 53.5284 -152.9078 253° West 499 574 38,000  Level FlightAware Transoceanic
Thu 07:24:00 PM 53.4884 -153.1299 253° West 499 574 38,000  Level FlightAware Transoceanic
Thu 07:25:00 PM 53.4481 -153.3515 253° West 499 574 38,000  Level FlightAware Transoceanic
Thu 07:26:00 PM 53.4073 -153.5727 253° West 499 574 38,000  Level FlightAware Transoceanic
Thu 07:27:00 PM 53.3661 -153.7935 253° West 499 574 38,000  Level FlightAware Transoceanic
Thu 07:28:00 PM 53.3244 -154.0139 252° West 499 574 38,000  Level FlightAware Transoceanic
Thu 07:29:00 PM 53.2824 -154.2338 252° West 499 574 38,000  Level FlightAware Transoceanic
Thu 07:29:21 PM 53.2833 -154.2333 252° West 501 577 38,000  Level Oakland Oceanic (ODAPS)
Thu 07:30:00 PM 53.2400 -154.4532 252° West 499 574 38,000  Level FlightAware Transoceanic
Thu 07:31:00 PM 53.1972 -154.6723 252° West 499 574 38,000  Level FlightAware Transoceanic
Thu 07:32:00 PM 53.1539 -154.8909 252° West 499 574 38,000  Level FlightAware Transoceanic
Thu 07:33:00 PM 53.1103 -155.1091 251° West 499 574 38,000  Level FlightAware Transoceanic
Thu 07:34:00 PM 53.0663 -155.3268 251° West 499 574 38,000  Level FlightAware Transoceanic
Thu 07:35:00 PM 53.0226 -155.5438 251° West 501 577 38,000  Level FlightAware Transoceanic
Thu 07:36:00 PM 52.9777 -155.7606 251° West 501 577 38,000  Level FlightAware Transoceanic
Thu 07:37:00 PM 52.9325 -155.9770 251° West 501 577 38,000  Level FlightAware Transoceanic
Thu 07:38:00 PM 52.8868 -156.1929 251° West 501 577 38,000  Level FlightAware Transoceanic
Thu 07:39:00 PM 52.8408 -156.4084 250° West 501 577 38,000  Level FlightAware Transoceanic
Thu 07:40:00 PM 52.7944 -156.6235 250° West 501 577 38,000  Level FlightAware Transoceanic
Thu 07:41:00 PM 52.7476 -156.8380 250° West 501 577 38,000  Level FlightAware Transoceanic
Thu 07:42:00 PM 52.7004 -157.0521 250° West 501 577 38,000  Level FlightAware Transoceanic
Thu 07:43:00 PM 52.6528 -157.2658 250° West 501 577 38,000  Level FlightAware Transoceanic
Thu 07:43:42 PM 52.6500 -157.2333 250° West 488 562 38,000  Level Oakland Oceanic (ODAPS)
Thu 07:44:00 PM 52.6049 -157.4789 250° West 501 577 38,000  Level FlightAware Transoceanic
Thu 07:45:00 PM 52.5565 -157.6916 249° West 501 577 38,000  Level FlightAware Transoceanic
Thu 07:46:00 PM 52.5078 -157.9039 249° West 501 577 38,000  Level FlightAware Transoceanic
Thu 07:47:00 PM 52.4587 -158.1156 249° West 501 577 38,000  Level FlightAware Transoceanic
Thu 07:48:00 PM 52.4092 -158.3269 249° West 501 577 38,000  Level FlightAware Transoceanic
Thu 07:49:00 PM 52.3580 -158.5204 249° West 488 562 38,000  Level FlightAware Transoceanic
Thu 07:50:00 PM 52.3080 -158.7332 249° West 488 562 38,000  Level FlightAware Transoceanic
Thu 07:51:00 PM 52.2576 -158.9455 249° West 488 562 38,000  Level FlightAware Transoceanic
Thu 07:52:00 PM 52.2069 -159.1574 249° West 488 562 38,000  Level FlightAware Transoceanic
Thu 07:53:00 PM 52.1557 -159.3688 248° West 488 562 38,000  Level FlightAware Transoceanic
Thu 07:54:00 PM 52.1042 -159.5797 248° West 488 562 38,000  Level FlightAware Transoceanic
Thu 07:55:00 PM 52.0523 -159.7901 248° West 488 562 38,000  Level FlightAware Transoceanic
Thu 07:56:00 PM 52.0000 -160.0000 242° Southwest 488 562 38,000  Level FlightAware Transoceanic
Thu 07:56:21 PM 52.0000 -160.0000 242° Southwest 499 574 38,000  Level Oakland Oceanic (ODAPS)
Thu 07:56:54 PM 51.9667 -160.1167 242° Southwest 493 567 38,000  Level Oakland Oceanic (ODAPS)
Thu 07:57:00 PM 51.9387 -160.1867 242° Southwest 488 562 38,000  Level FlightAware Transoceanic
Thu 07:58:00 PM 51.8771 -160.3729 242° Southwest 488 562 38,000  Level FlightAware Transoceanic
Thu 07:59:00 PM 51.8152 -160.5586 242° Southwest 488 562 38,000  Level FlightAware Transoceanic
Thu 08:00:00 PM 51.7529 -160.7438 241° Southwest 488 562 38,000  Level FlightAware Transoceanic
Thu 08:01:00 PM 51.6905 -160.9285 241° Southwest 488 562 38,000  Level FlightAware Transoceanic
Thu 08:02:00 PM 51.6071 -161.1729 241° Southwest 499 574 38,000  Level FlightAware Transoceanic
Thu 08:03:00 PM 51.5690 -161.2964 241° Southwest 493 567 38,000  Level FlightAware Transoceanic
Thu 08:04:00 PM 51.5016 -161.4910 241° Southwest 493 567 38,000  Level FlightAware Transoceanic
Thu 08:05:00 PM 51.4339 -161.6850 241° Southwest 493 567 38,000  Level FlightAware Transoceanic
Thu 08:06:00 PM 51.3658 -161.8784 241° Southwest 493 567 38,000  Level FlightAware Transoceanic
Thu 08:07:00 PM 51.2975 -162.0713 240° Southwest 493 567 38,000  Level FlightAware Transoceanic
Thu 08:08:00 PM 51.2288 -162.2636 240° Southwest 493 567 38,000  Level FlightAware Transoceanic
Thu 08:09:00 PM 51.1598 -162.4553 240° Southwest 493 567 38,000  Level FlightAware Transoceanic
Thu 08:10:00 PM 51.0905 -162.6465 240° Southwest 493 567 38,000  Level FlightAware Transoceanic
Thu 08:10:46 PM 51.0500 -162.7500 240° Southwest 483 556 38,000  Level Oakland Oceanic (ODAPS)
Thu 08:11:00 PM 51.0208 -162.8371 240° Southwest 493 567 38,000  Level FlightAware Transoceanic
Thu 08:12:00 PM 50.9509 -163.0271 240° Southwest 493 567 38,000  Level FlightAware Transoceanic
Thu 08:13:00 PM 50.8806 -163.2165 239° Southwest 493 567 38,000  Level FlightAware Transoceanic
Thu 08:14:00 PM 50.8101 -163.4053 239° Southwest 493 567 38,000  Level FlightAware Transoceanic
Thu 08:15:00 PM 50.7393 -163.5936 239° Southwest 493 567 38,000  Level FlightAware Transoceanic
Thu 08:16:00 PM 50.6681 -163.7814 239° Southwest 493 567 38,000  Level FlightAware Transoceanic
Thu 08:17:00 PM 50.6327 -163.8681 239° Southwest 483 556 38,000  Level FlightAware Transoceanic
Thu 08:18:00 PM 50.5621 -164.0525 239° Southwest 483 556 38,000  Level FlightAware Transoceanic
Thu 08:19:00 PM 50.4913 -164.2363 239° Southwest 483 556 38,000  Level FlightAware Transoceanic
Thu 08:20:00 PM 50.4201 -164.4196 239° Southwest 483 556 38,000  Level FlightAware Transoceanic
Thu 08:21:00 PM 50.3487 -164.6024 238° Southwest 483 556 38,000  Level FlightAware Transoceanic
Thu 08:22:00 PM 50.2770 -164.7846 238° Southwest 483 556 38,000  Level FlightAware Transoceanic
Thu 08:23:00 PM 50.2049 -164.9662 238° Southwest 483 556 38,000  Level FlightAware Transoceanic
Thu 08:24:00 PM 50.1326 -165.1474 238° Southwest 483 556 38,000  Level FlightAware Transoceanic
Thu 08:25:00 PM 50.0601 -165.3279 238° Southwest 483 556 38,000 984 Level FlightAware Transoceanic
Thu 08:25:01 PM 50.1167 -165.1833 238° Southwest 469 540 39,000  Climbing Oakland Oceanic (ODAPS)
Thu 08:26:00 PM 49.9872 -165.5079 238° Southwest 483 556 38,000 -504 Descending FlightAware Transoceanic
Thu 08:27:00 PM 49.9141 -165.6874 238° Southwest 483 556 38,000  Level FlightAware Transoceanic
Thu 08:28:00 PM 49.8407 -165.8663 237° Southwest 483 556 38,000  Level FlightAware Transoceanic
Thu 08:29:00 PM 49.7670 -166.0447 237° Southwest 483 556 38,000  Level FlightAware Transoceanic
Thu 08:30:00 PM 49.6930 -166.2225 237° Southwest 483 556 38,000 500 Level FlightAware Transoceanic
Thu 08:31:00 PM 49.6410 -166.3441 237° Southwest 469 540 39,000 500 Climbing FlightAware Transoceanic
Thu 08:32:00 PM 49.5721 -166.5081 237° Southwest 469 540 39,000  Level FlightAware Transoceanic
Thu 08:33:00 PM 49.5029 -166.6716 237° Southwest 469 540 39,000  Level FlightAware Transoceanic
Thu 08:34:00 PM 49.4336 -166.8347 237° Southwest 469 540 39,000  Level FlightAware Transoceanic
Thu 08:35:00 PM 49.3640 -166.9973 237° Southwest 469 540 39,000  Level FlightAware Transoceanic
Thu 08:36:00 PM 49.2942 -167.1594 236° Southwest 469 540 39,000  Level FlightAware Transoceanic
Thu 08:37:00 PM 49.2241 -167.3210 236° Southwest 469 540 39,000  Level FlightAware Transoceanic
Thu 08:38:00 PM 49.1539 -167.4822 236° Southwest 469 540 39,000  Level FlightAware Transoceanic
Thu 08:39:00 PM 49.0834 -167.6430 236° Southwest 469 540 39,000  Level FlightAware Transoceanic
Thu 08:40:00 PM 49.0127 -167.8033 236° Southwest 469 540 39,000  Level FlightAware Transoceanic
Thu 08:41:00 PM 48.9417 -167.9631 236° Southwest 469 540 39,000  Level FlightAware Transoceanic
Thu 08:41:28 PM 49.1500 -167.5000 236° Southwest 468 539 39,000  Level Oakland Oceanic (ODAPS)
Thu 08:42:00 PM 48.8706 -168.1225 236° Southwest 469 540 39,000  Level FlightAware Transoceanic
Thu 08:43:00 PM 48.7992 -168.2814 236° Southwest 469 540 39,000  Level FlightAware Transoceanic
Thu 08:44:00 PM 48.7276 -168.4399 236° Southwest 469 540 39,000  Level FlightAware Transoceanic
Thu 08:45:00 PM 48.6558 -168.5979 235° Southwest 469 540 39,000  Level FlightAware Transoceanic
Thu 08:46:00 PM 48.5838 -168.7555 235° Southwest 469 540 39,000  Level FlightAware Transoceanic
Thu 08:47:00 PM 48.5098 -168.9202 235° Southwest 468 539 39,000  Level FlightAware Transoceanic
Thu 08:48:00 PM 48.4376 -169.0758 235° Southwest 468 539 39,000  Level FlightAware Transoceanic
Thu 08:49:00 PM 48.3652 -169.2309 235° Southwest 468 539 39,000  Level FlightAware Transoceanic
Thu 08:50:00 PM 48.2925 -169.3856 235° Southwest 468 539 39,000  Level FlightAware Transoceanic
Thu 08:51:00 PM 48.2197 -169.5399 235° Southwest 468 539 39,000  Level FlightAware Transoceanic
Thu 08:52:00 PM 48.1467 -169.6937 234° Southwest 468 539 39,000  Level FlightAware Transoceanic
Thu 08:52:30 PM 48.1167 -169.7500 235° Southwest 472 543 39,000  Level Oakland Oceanic (ODAPS)
Thu 08:53:00 PM 48.0734 -169.8471 234° Southwest 468 539 39,000  Level FlightAware Transoceanic
Thu 08:53:58 PM 48.0000 -170.0000 250° West 471 542 39,000  Level Oakland Oceanic (ODAPS)
Thu 08:54:00 PM 48.0000 -170.0000 250° West 468 539 39,000  Level FlightAware Transoceanic
Thu 08:55:00 PM 47.9551 -170.1848 250° West 468 539 39,000  Level FlightAware Transoceanic
Thu 08:56:00 PM 47.9100 -170.3693 250° West 468 539 39,000  Level FlightAware Transoceanic
Thu 08:57:00 PM 47.8645 -170.5535 250° West 468 539 39,000  Level FlightAware Transoceanic
Thu 08:58:00 PM 47.8188 -170.7374 250° West 472 543 39,000  Level FlightAware Transoceanic
Thu 08:59:00 PM 47.7728 -170.9209 249° West 472 543 39,000  Level FlightAware Transoceanic
Thu 09:00:00 PM 47.7264 -171.1041 249° West 471 542 39,000  Level FlightAware Transoceanic
Thu 09:01:00 PM 47.6798 -171.2870 249° West 471 542 39,000  Level FlightAware Transoceanic
Thu 09:02:00 PM 47.6329 -171.4695 249° West 471 542 39,000  Level FlightAware Transoceanic
Thu 09:03:00 PM 47.5857 -171.6517 249° West 471 542 39,000  Level FlightAware Transoceanic
Thu 09:04:00 PM 47.5382 -171.8336 249° West 471 542 39,000  Level FlightAware Transoceanic
Thu 09:05:00 PM 47.4904 -172.0152 249° West 471 542 39,000  Level FlightAware Transoceanic
Thu 09:06:00 PM 47.4424 -172.1964 249° West 471 542 39,000  Level FlightAware Transoceanic
Thu 09:06:24 PM 47.4333 -172.2500 248° West 474 545 39,000  Level Oakland Oceanic (ODAPS)
Thu 09:07:00 PM 47.3940 -172.3773 248° West 471 542 39,000  Level FlightAware Transoceanic
Thu 09:08:00 PM 47.3454 -172.5579 248° West 471 542 39,000  Level FlightAware Transoceanic
Thu 09:09:00 PM 47.2965 -172.7381 248° West 471 542 39,000  Level FlightAware Transoceanic
Thu 09:10:00 PM 47.2473 -172.9180 248° West 471 542 39,000  Level FlightAware Transoceanic
Thu 09:11:00 PM 47.1978 -173.0976 248° West 471 542 39,000  Level FlightAware Transoceanic
Thu 09:12:00 PM 47.1398 -173.3228 248° West 474 545 39,000  Level FlightAware Transoceanic
Thu 09:13:00 PM 47.0899 -173.5005 248° West 474 545 39,000  Level FlightAware Transoceanic
Thu 09:14:00 PM 47.0397 -173.6778 247° West 474 545 39,000  Level FlightAware Transoceanic
Thu 09:15:00 PM 46.9893 -173.8548 247° West 474 545 39,000  Level FlightAware Transoceanic
Thu 09:16:00 PM 46.9386 -174.0314 247° West 474 545 39,000  Level FlightAware Transoceanic
Thu 09:17:00 PM 46.8876 -174.2077 247° West 474 545 39,000  Level FlightAware Transoceanic
Thu 09:18:00 PM 46.8363 -174.3837 247° West 474 545 39,000  Level FlightAware Transoceanic
Thu 09:19:00 PM 46.7848 -174.5593 247° West 474 545 39,000  Level FlightAware Transoceanic
Thu 09:20:00 PM 46.7330 -174.7346 247° West 474 545 39,000  Level FlightAware Transoceanic
Thu 09:21:00 PM 46.6810 -174.9096 246° West 474 545 39,000  Level FlightAware Transoceanic
Thu 09:22:00 PM 46.6287 -175.0842 246° West 474 545 39,000  Level FlightAware Transoceanic
Thu 09:23:00 PM 46.5761 -175.2585 246° West 474 545 39,000  Level FlightAware Transoceanic
Thu 09:23:13 PM 46.7333 -174.7167 247° West 473 544 39,000  Level Oakland Oceanic (ODAPS)
Thu 09:24:00 PM 46.5232 -175.4324 246° West 474 545 39,000  Level FlightAware Transoceanic
Thu 09:25:00 PM 46.4701 -175.6060 246° West 474 545 39,000  Level FlightAware Transoceanic
Thu 09:26:00 PM 46.4167 -175.7793 246° West 474 545 39,000  Level FlightAware Transoceanic
Thu 09:27:00 PM 46.3631 -175.9522 246° West 474 545 39,000  Level FlightAware Transoceanic
Thu 09:28:00 PM 46.3092 -176.1248 246° West 474 545 39,000  Level FlightAware Transoceanic
Thu 09:29:00 PM 46.2554 -176.2845 246° West 473 544 39,000  Level FlightAware Transoceanic
Thu 09:30:00 PM 46.2010 -176.4570 245° Southwest 473 544 39,000  Level FlightAware Transoceanic
Thu 09:31:00 PM 46.1463 -176.6291 245° Southwest 473 544 39,000  Level FlightAware Transoceanic
Thu 09:32:00 PM 46.0914 -176.8009 245° Southwest 473 544 39,000  Level FlightAware Transoceanic
Thu 09:33:00 PM 46.0362 -176.9724 245° Southwest 473 544 39,000 504 Level FlightAware Transoceanic
Thu 09:33:59 PM 45.9833 -177.1167 245° Southwest 469 540 40,000  Climbing Oakland Oceanic (ODAPS)
Thu 09:34:00 PM 45.9808 -177.1435 245° Southwest 473 544 39,000 -984 Descending FlightAware Transoceanic
Thu 09:35:00 PM 45.9250 -177.3143 245° Southwest 473 544 39,000  Level FlightAware Transoceanic
Thu 09:36:00 PM 45.8691 -177.4847 245° Southwest 473 544 39,000  Level FlightAware Transoceanic
Thu 09:37:00 PM 45.8129 -177.6548 245° Southwest 473 544 39,000  Level FlightAware Transoceanic
Thu 09:38:00 PM 45.7564 -177.8246 244° Southwest 473 544 39,000  Level FlightAware Transoceanic
Thu 09:39:00 PM 45.6997 -177.9940 244° Southwest 473 544 39,000 500 Level FlightAware Transoceanic
Thu 09:40:00 PM 45.6446 -178.1458 244° Southwest 469 540 40,000 500 Climbing FlightAware Transoceanic
Thu 09:41:00 PM 45.5872 -178.3161 244° Southwest 469 540 40,000  Level FlightAware Transoceanic
Thu 09:42:00 PM 45.5296 -178.4861 244° Southwest 469 540 40,000  Level FlightAware Transoceanic
Thu 09:43:00 PM 45.4718 -178.6557 244° Southwest 469 540 40,000  Level FlightAware Transoceanic
Thu 09:44:00 PM 45.4137 -178.8249 244° Southwest 469 540 40,000  Level FlightAware Transoceanic
Thu 09:45:00 PM 45.3553 -178.9939 244° Southwest 469 540 40,000  Level FlightAware Transoceanic
Thu 09:46:00 PM 45.2967 -179.1624 244° Southwest 469 540 40,000  Level FlightAware Transoceanic
Thu 09:47:00 PM 45.2379 -179.3306 244° Southwest 469 540 40,000  Level FlightAware Transoceanic
Thu 09:48:00 PM 45.1788 -179.4985 243° Southwest 469 540 40,000  Level FlightAware Transoceanic
Thu 09:48:04 PM 45.2000 -179.4333 244° Southwest 474 545 40,000  Level Oakland Oceanic (ODAPS)
Thu 09:49:00 PM 45.1194 -179.6660 243° Southwest 469 540 40,000  Level FlightAware Transoceanic
Thu 09:50:00 PM 45.0598 -179.8332 243° Southwest 469 540 40,000  Level FlightAware Transoceanic
Thu 09:51:00 PM 45.0000 -180.0000 258° West 469 540 40,000  Level FlightAware Transoceanic
Thu 09:51:38 PM 45.0000 180.0000 258° West 479 551 40,000  Level Oakland Oceanic (ODAPS)
Thu 09:52:00 PM 44.9726 179.8190 258° West 469 540 40,000  Level FlightAware Transoceanic
Thu 09:53:00 PM 44.9449 179.6382 258° West 469 540 40,000  Level FlightAware Transoceanic
Thu 09:54:00 PM 44.9169 179.4576 258° West 474 545 40,000  Level FlightAware Transoceanic
Thu 09:55:00 PM 44.8887 179.2772 257° West 474 545 40,000  Level FlightAware Transoceanic
Thu 09:56:00 PM 44.8601 179.0970 257° West 474 545 40,000  Level FlightAware Transoceanic
Thu 09:57:00 PM 44.8313 178.9169 257° West 474 545 40,000  Level FlightAware Transoceanic
Thu 09:58:00 PM 44.7985 178.7145 257° West 479 551 40,000  Level FlightAware Transoceanic
Thu 09:59:00 PM 44.7686 178.5316 257° West 479 551 40,000  Level FlightAware Transoceanic
Thu 10:00:00 PM 44.7383 178.3489 257° West 479 551 40,000  Level FlightAware Transoceanic
Thu 10:01:00 PM 44.7078 178.1664 257° West 479 551 40,000  Level FlightAware Transoceanic
Thu 10:01:44 PM 44.7000 178.1000 257° West 476 548 40,000  Level Oakland Oceanic (ODAPS)
Thu 10:02:00 PM 44.6770 177.9841 257° West 479 551 40,000  Level FlightAware Transoceanic
Thu 10:03:00 PM 44.6459 177.8019 256° West 479 551 40,000  Level FlightAware Transoceanic
Thu 10:04:00 PM 44.6145 177.6200 256° West 479 551 40,000  Level FlightAware Transoceanic
Thu 10:05:00 PM 44.5828 177.4383 256° West 479 551 40,000  Level FlightAware Transoceanic
Thu 10:06:00 PM 44.5508 177.2567 256° West 479 551 40,000  Level FlightAware Transoceanic
Thu 10:07:00 PM 44.5185 177.0754 256° West 479 551 40,000  Level FlightAware Transoceanic
Thu 10:08:00 PM 44.5112 177.0180 256° West 476 548 40,000  Level FlightAware Transoceanic
Thu 10:09:00 PM 44.4787 176.8384 256° West 476 548 40,000  Level FlightAware Transoceanic
Thu 10:10:00 PM 44.4460 176.6589 256° West 476 548 40,000  Level FlightAware Transoceanic
Thu 10:11:00 PM 44.4130 176.4797 255° West 476 548 40,000  Level FlightAware Transoceanic
Thu 10:12:00 PM 44.3797 176.3006 255° West 476 548 40,000  Level FlightAware Transoceanic
Thu 10:13:00 PM 44.3461 176.1218 255° West 476 548 40,000  Level FlightAware Transoceanic
Thu 10:14:00 PM 44.3122 175.9432 255° West 476 548 40,000  Level FlightAware Transoceanic
Thu 10:15:00 PM 44.2781 175.7648 255° West 476 548 40,000  Level FlightAware Transoceanic
Thu 10:15:48 PM 44.2500 175.6333 255° West 470 541 40,000  Level Oakland Oceanic (ODAPS)
Thu 10:16:00 PM 44.2437 175.5865 255° West 476 548 40,000  Level FlightAware Transoceanic
Thu 10:17:00 PM 44.2090 175.4085 255° West 476 548 40,000  Level FlightAware Transoceanic
Thu 10:18:00 PM 44.1740 175.2307 255° West 476 548 40,000  Level FlightAware Transoceanic
Thu 10:19:00 PM 44.1388 175.0532 254° West 476 548 40,000  Level FlightAware Transoceanic
Thu 10:20:00 PM 44.1032 174.8758 254° West 476 548 40,000  Level FlightAware Transoceanic
Thu 10:21:00 PM 44.0675 174.6986 254° West 476 548 40,000  Level FlightAware Transoceanic
Thu 10:22:00 PM 44.0082 174.4191 254° West 470 541 40,000  Level FlightAware Transoceanic
Thu 10:23:00 PM 43.9726 174.2464 254° West 470 541 40,000  Level FlightAware Transoceanic
Thu 10:24:00 PM 43.9367 174.0740 254° West 470 541 40,000  Level FlightAware Transoceanic
Thu 10:25:00 PM 43.9006 173.9017 254° West 470 541 40,000  Level FlightAware Transoceanic
Thu 10:26:00 PM 43.8642 173.7297 254° West 470 541 40,000  Level FlightAware Transoceanic
Thu 10:27:00 PM 43.8276 173.5579 253° West 470 541 40,000  Level FlightAware Transoceanic
Thu 10:28:00 PM 43.7907 173.3863 253° West 470 541 40,000  Level FlightAware Transoceanic
Thu 10:29:00 PM 43.7536 173.2149 253° West 470 541 40,000  Level FlightAware Transoceanic
Thu 10:29:32 PM 43.7667 173.2667 253° West 466 536 40,000  Level Oakland Oceanic (ODAPS)
Thu 10:30:00 PM 43.7162 173.0437 253° West 470 541 40,000  Level FlightAware Transoceanic
Thu 10:31:00 PM 43.6785 172.8728 253° West 470 541 40,000  Level FlightAware Transoceanic
Thu 10:32:00 PM 43.6406 172.7020 253° West 470 541 40,000  Level FlightAware Transoceanic
Thu 10:33:00 PM 43.6024 172.5315 253° West 470 541 40,000  Level FlightAware Transoceanic
Thu 10:34:00 PM 43.5640 172.3612 253° West 470 541 40,000  Level FlightAware Transoceanic
Thu 10:35:00 PM 43.5465 172.2780 253° West 466 536 40,000  Level FlightAware Transoceanic
Thu 10:36:00 PM 43.5089 172.1140 252° West 466 536 40,000  Level FlightAware Transoceanic
Thu 10:37:00 PM 43.4712 171.9501 252° West 466 536 40,000  Level FlightAware Transoceanic
Thu 10:38:00 PM 43.4332 171.7865 252° West 466 536 40,000  Level FlightAware Transoceanic
Thu 10:39:00 PM 43.3950 171.6230 252° West 466 536 40,000  Level FlightAware Transoceanic
Thu 10:40:00 PM 43.3565 171.4598 252° West 466 536 40,000  Level FlightAware Transoceanic
Thu 10:41:00 PM 43.3178 171.2967 252° West 466 536 40,000  Level FlightAware Transoceanic
Thu 10:42:00 PM 43.2789 171.1339 252° West 466 536 40,000  Level FlightAware Transoceanic
Thu 10:43:00 PM 43.2397 170.9713 252° West 466 536 40,000 714 Level FlightAware Transoceanic
Thu 10:43:24 PM 43.2333 170.9333 251° West 447 514 41,000  Climbing Oakland Oceanic (ODAPS)
Thu 10:44:00 PM 43.2004 170.8089 252° West 466 536 40,000 -625 Descending FlightAware Transoceanic
Thu 10:45:00 PM 43.1607 170.6467 251° West 466 536 40,000  Level FlightAware Transoceanic
Thu 10:46:00 PM 43.1209 170.4847 251° West 466 536 40,000  Level FlightAware Transoceanic
Thu 10:47:00 PM 43.0808 170.3229 251° West 466 536 40,000  Level FlightAware Transoceanic
Thu 10:48:00 PM 43.0405 170.1613 251° West 466 536 40,000 500 Level FlightAware Transoceanic
Thu 10:49:00 PM 43.0000 170.0000 252° West 447 514 41,000 822 Climbing FlightAware Transoceanic
Thu 10:49:13 PM 43.0000 170.0000 252° West 455 524 41,000  Level Oakland Oceanic (ODAPS)
Thu 10:50:00 PM 42.9594 169.8342 251° West 447 514 41,000  Level FlightAware Transoceanic
Thu 10:51:00 PM 42.9185 169.6685 251° West 447 514 41,000  Level FlightAware Transoceanic
Thu 10:52:00 PM 42.8774 169.5031 251° West 447 514 41,000  Level FlightAware Transoceanic
Thu 10:53:00 PM 42.8360 169.3379 251° West 447 514 41,000  Level FlightAware Transoceanic
Thu 10:54:00 PM 42.7944 169.1729 251° West 447 514 41,000  Level FlightAware Transoceanic
Thu 10:55:00 PM 42.7566 169.0236 251° West 455 524 41,000  Level FlightAware Transoceanic
Thu 10:56:00 PM 42.7152 168.8616 251° West 455 524 41,000  Level FlightAware Transoceanic
Thu 10:57:00 PM 42.6736 168.6999 251° West 455 524 41,000  Level FlightAware Transoceanic
Thu 10:57:25 PM 42.6667 168.7000 251° West 456 525 41,000  Level Oakland Oceanic (ODAPS)
Thu 10:58:00 PM 42.6317 168.5383 251° West 455 524 41,000  Level FlightAware Transoceanic
Thu 10:59:00 PM 42.5897 168.3770 250° West 455 524 41,000  Level FlightAware Transoceanic
Thu 11:00:00 PM 42.5474 168.2159 250° West 455 524 41,000  Level FlightAware Transoceanic
Thu 11:01:00 PM 42.5049 168.0550 250° West 455 524 41,000  Level FlightAware Transoceanic
Thu 11:02:00 PM 42.4622 167.8943 250° West 455 524 41,000  Level FlightAware Transoceanic
Thu 11:03:00 PM 42.4130 167.7341 250° West 456 525 41,000  Level FlightAware Transoceanic
Thu 11:04:00 PM 42.3700 167.5739 250° West 456 525 41,000  Level FlightAware Transoceanic
Thu 11:05:00 PM 42.3267 167.4139 250° West 456 525 41,000  Level FlightAware Transoceanic
Thu 11:06:00 PM 42.2832 167.2541 250° West 456 525 41,000  Level FlightAware Transoceanic
Thu 11:07:00 PM 42.2395 167.0945 250° West 456 525 41,000  Level FlightAware Transoceanic
Thu 11:08:00 PM 42.1955 166.9352 250° West 456 525 41,000  Level FlightAware Transoceanic
Thu 11:09:00 PM 42.1513 166.7761 249° West 456 525 41,000  Level FlightAware Transoceanic
Thu 11:10:00 PM 42.1070 166.6172 249° West 456 525 41,000  Level FlightAware Transoceanic
Thu 11:11:00 PM 42.0624 166.4585 249° West 456 525 41,000  Level FlightAware Transoceanic
Thu 11:11:06 PM 42.0833 166.5167 249° West 456 525 41,000  Level Oakland Oceanic (ODAPS)
Thu 11:12:00 PM 42.0175 166.3001 249° West 456 525 41,000  Level FlightAware Transoceanic
Thu 11:13:00 PM 41.9725 166.1418 249° West 456 525 41,000  Level FlightAware Transoceanic
Thu 11:14:00 PM 41.9272 165.9839 249° West 456 525 41,000  Level FlightAware Transoceanic
Thu 11:15:00 PM 41.8818 165.8261 249° West 456 525 41,000  Level FlightAware Transoceanic
Thu 11:16:00 PM 41.8361 165.6685 249° West 456 525 41,000  Level FlightAware Transoceanic
Thu 11:17:00 PM 41.8086 165.5606 249° West 456 525 41,000  Level FlightAware Transoceanic
Thu 11:18:00 PM 41.7620 165.4020 248° West 456 525 41,000  Level FlightAware Transoceanic
Thu 11:19:00 PM 41.7152 165.2437 248° West 456 525 41,000  Level FlightAware Transoceanic
Thu 11:20:00 PM 41.6682 165.0856 248° West 456 525 41,000  Level FlightAware Transoceanic
Thu 11:21:00 PM 41.6210 164.9278 248° West 456 525 41,000  Level FlightAware Transoceanic
Thu 11:22:00 PM 41.5736 164.7701 248° West 456 525 41,000  Level FlightAware Transoceanic
Thu 11:23:00 PM 41.5259 164.6127 248° West 456 525 41,000  Level FlightAware Transoceanic
Thu 11:24:00 PM 41.4781 164.4556 248° West 456 525 41,000  Level FlightAware Transoceanic
Thu 11:25:00 PM 41.4300 164.2987 248° West 456 525 41,000  Level FlightAware Transoceanic
Thu 11:26:00 PM 41.3817 164.1420 248° West 456 525 41,000  Level FlightAware Transoceanic
Thu 11:27:00 PM 41.3332 163.9855 248° West 456 525 41,000  Level FlightAware Transoceanic
Thu 11:28:00 PM 41.2845 163.8293 247° West 456 525 41,000  Level FlightAware Transoceanic
Thu 11:29:00 PM 41.2356 163.6733 247° West 456 525 41,000  Level FlightAware Transoceanic
Thu 11:30:00 PM 41.1865 163.5175 247° West 456 525 41,000  Level FlightAware Transoceanic
Thu 11:31:00 PM 41.1371 163.3620 247° West 456 525 41,000  Level FlightAware Transoceanic
Thu 11:32:00 PM 41.0876 163.2067 247° West 456 525 41,000  Level FlightAware Transoceanic
Thu 11:33:00 PM 41.0378 163.0516 247° West 456 525 41,000  Level FlightAware Transoceanic
Thu 11:34:00 PM 40.9879 162.8968 247° West 456 525 41,000  Level FlightAware Transoceanic
Thu 11:35:00 PM 40.9377 162.7422 247° West 456 525 41,000  Level FlightAware Transoceanic
Thu 11:36:00 PM 40.8873 162.5879 247° West 456 525 41,000  Level FlightAware Transoceanic
Thu 11:37:00 PM 40.8367 162.4338 246° West 456 525 41,000  Level FlightAware Transoceanic
Thu 11:38:00 PM 40.7859 162.2799 246° West 456 525 41,000  Level FlightAware Transoceanic
Thu 11:39:00 PM 40.7349 162.1262 246° West 456 525 41,000  Level FlightAware Transoceanic
Thu 11:40:00 PM 40.6837 161.9728 246° West 456 525 41,000  Level FlightAware Transoceanic
Thu 11:41:00 PM 40.6323 161.8197 246° West 456 525 41,000  Level FlightAware Transoceanic
Thu 11:42:00 PM 40.5807 161.6667 246° West 456 525 41,000  Level FlightAware Transoceanic
Thu 11:43:00 PM 40.5289 161.5140 246° West 456 525 41,000  Level FlightAware Transoceanic
Thu 11:44:00 PM 40.4769 161.3615 246° West 456 525 41,000  Level FlightAware Transoceanic
Thu 11:45:00 PM 40.4247 161.2093 246° West 456 525 41,000  Level FlightAware Transoceanic
Thu 11:46:00 PM 40.3723 161.0573 246° West 456 525 41,000  Level FlightAware Transoceanic
Thu 11:47:00 PM 40.3197 160.9056 245° Southwest 456 525 41,000  Level FlightAware Transoceanic
Thu 11:48:00 PM 40.2669 160.7540 245° Southwest 456 525 41,000  Level FlightAware Transoceanic
Thu 11:49:00 PM 40.2139 160.6028 245° Southwest 456 525 41,000  Level FlightAware Transoceanic
Thu 11:50:00 PM 40.1608 160.4517 245° Southwest 456 525 41,000  Level FlightAware Transoceanic
Thu 11:51:00 PM 40.1074 160.3009 245° Southwest 456 525 41,000  Level FlightAware Transoceanic
Thu 11:52:00 PM 40.0538 160.1503 245° Southwest 456 525 41,000  Level FlightAware Transoceanic
Thu 11:53:00 PM 40.0000 160.0000 252° West 456 525 41,000  Level FlightAware Transoceanic
Thu 11:54:00 PM 39.9599 159.8374 252° West 456 525 41,000  Level FlightAware Transoceanic
Thu 11:55:00 PM 39.9195 159.6751 252° West 456 525 41,000  Level FlightAware Transoceanic
Thu 11:56:00 PM 39.8789 159.5129 252° West 456 525 41,000  Level FlightAware Transoceanic
Thu 11:57:00 PM 39.8381 159.3509 252° West 456 525 41,000  Level FlightAware Transoceanic
Thu 11:58:00 PM 39.7971 159.1891 252° West 456 525 41,000  Level FlightAware Transoceanic
Thu 11:59:00 PM 39.7559 159.0276 252° West 456 525 41,000  Level FlightAware Transoceanic
Fri 12:00:00 AM 39.7144 158.8661 251° West 456 525 41,000  Level FlightAware Transoceanic
Fri 12:01:00 AM 39.6727 158.7050 251° West 456 525 41,000  Level FlightAware Transoceanic
Fri 12:02:00 AM 39.6307 158.5439 251° West 456 525 41,000  Level FlightAware Transoceanic
Fri 12:03:00 AM 39.5886 158.3831 251° West 456 525 41,000  Level FlightAware Transoceanic
Fri 12:04:00 AM 39.5462 158.2225 251° West 456 525 41,000  Level FlightAware Transoceanic
Fri 12:05:00 AM 39.5036 158.0621 251° West 456 525 41,000  Level FlightAware Transoceanic
Fri 12:06:00 AM 39.4608 157.9019 251° West 456 525 41,000  Level FlightAware Transoceanic
Fri 12:07:00 AM 39.4178 157.7418 251° West 456 525 41,000  Level FlightAware Transoceanic
Fri 12:08:00 AM 39.3745 157.5820 251° West 456 525 41,000  Level FlightAware Transoceanic
Fri 12:09:00 AM 39.3311 157.4224 251° West 456 525 41,000  Level FlightAware Transoceanic
Fri 12:10:00 AM 39.2874 157.2629 250° West 456 525 41,000  Level FlightAware Transoceanic
Fri 12:11:00 AM 39.2435 157.1037 250° West 456 525 41,000  Level FlightAware Transoceanic
Fri 12:12:00 AM 39.1994 156.9447 250° West 456 525 41,000  Level FlightAware Transoceanic
Fri 12:13:00 AM 39.1550 156.7858 250° West 456 525 41,000  Level FlightAware Transoceanic
Fri 12:14:00 AM 39.1105 156.6272 250° West 456 525 41,000  Level FlightAware Transoceanic
Fri 12:15:00 AM 39.0657 156.4688 250° West 456 525 41,000  Level FlightAware Transoceanic
Fri 12:16:00 AM 39.0207 156.3105 250° West 456 525 41,000  Level FlightAware Transoceanic
Fri 12:17:00 AM 38.9756 156.1525 250° West 456 525 41,000  Level FlightAware Transoceanic
Fri 12:18:00 AM 38.9302 155.9947 250° West 456 525 41,000  Level FlightAware Transoceanic
Fri 12:19:00 AM 38.8845 155.8371 250° West 456 525 41,000  Level FlightAware Transoceanic
Fri 12:20:00 AM 38.8387 155.6796 249° West 456 525 41,000  Level FlightAware Transoceanic
Fri 12:21:00 AM 38.7927 155.5224 249° West 456 525 41,000  Level FlightAware Transoceanic
Fri 12:22:00 AM 38.7464 155.3654 249° West 456 525 41,000  Level FlightAware Transoceanic
Fri 12:23:00 AM 38.7000 155.2086 249° West 456 525 41,000  Level FlightAware Transoceanic
Fri 12:24:00 AM 38.6533 155.0520 249° West 456 525 41,000  Level FlightAware Transoceanic
Fri 12:25:00 AM 38.6064 154.8956 249° West 456 525 41,000  Level FlightAware Transoceanic
Fri 12:26:00 AM 38.5593 154.7394 249° West 456 525 41,000  Level FlightAware Transoceanic
Fri 12:27:00 AM 38.5120 154.5834 249° West 456 525 41,000  Level FlightAware Transoceanic
Fri 12:28:00 AM 38.4646 154.4276 249° West 456 525 41,000  Level FlightAware Transoceanic
Fri 12:29:00 AM 38.4168 154.2720 249° West 456 525 41,000  Level FlightAware Transoceanic
Fri 12:30:00 AM 38.3689 154.1167 248° West 456 525 41,000  Level FlightAware Transoceanic
Fri 12:31:00 AM 38.3208 153.9615 248° West 456 525 41,000  Level FlightAware Transoceanic
Fri 12:32:00 AM 38.2725 153.8065 248° West 456 525 41,000  Level FlightAware Transoceanic
Fri 12:33:00 AM 38.2240 153.6518 248° West 456 525 41,000  Level FlightAware Transoceanic
Fri 12:34:00 AM 38.1753 153.4972 248° West 456 525 41,000  Level FlightAware Transoceanic
Fri 12:35:00 AM 38.1263 153.3429 248° West 456 525 41,000  Level FlightAware Transoceanic
Fri 12:36:00 AM 38.0772 153.1887 248° West 456 525 41,000  Level FlightAware Transoceanic
Fri 12:37:00 AM 38.0279 153.0348 248° West 456 525 41,000  Level FlightAware Transoceanic
Fri 12:38:00 AM 37.9783 152.8811 248° West 456 525 41,000  Level FlightAware Transoceanic
Fri 12:39:00 AM 37.9286 152.7276 248° West 456 525 41,000  Level FlightAware Transoceanic
Fri 12:40:00 AM 37.8787 152.5742 248° West 456 525 41,000  Level FlightAware Transoceanic
Fri 12:41:00 AM 37.8285 152.4212 247° West 456 525 41,000  Level FlightAware Transoceanic
Fri 12:42:00 AM 37.7782 152.2683 247° West 456 525 41,000  Level FlightAware Transoceanic
Fri 12:43:00 AM 37.7277 152.1156 247° West 456 525 41,000  Level FlightAware Transoceanic
Fri 12:44:00 AM 37.6770 151.9631 247° West 456 525 41,000  Level FlightAware Transoceanic
Fri 12:45:00 AM 37.6261 151.8109 247° West 456 525 41,000  Level FlightAware Transoceanic
Fri 12:46:00 AM 37.5749 151.6588 247° West 456 525 41,000  Level FlightAware Transoceanic
Fri 12:47:00 AM 37.5236 151.5069 247° West 456 525 41,000  Level FlightAware Transoceanic
Fri 12:48:00 AM 37.4721 151.3553 247° West 456 525 41,000  Level FlightAware Transoceanic
Fri 12:49:00 AM 37.4204 151.2039 247° West 456 525 41,000  Level FlightAware Transoceanic
Fri 12:50:00 AM 37.3686 151.0527 247° West 456 525 41,000  Level FlightAware Transoceanic
Fri 12:51:00 AM 37.3165 150.9017 247° West 456 525 41,000  Level FlightAware Transoceanic
Fri 12:52:00 AM 37.2642 150.7509 246° West 456 525 41,000  Level FlightAware Transoceanic
Fri 12:53:00 AM 37.2117 150.6003 246° West 456 525 41,000  Level FlightAware Transoceanic
Fri 12:54:00 AM 37.1591 150.4499 246° West 456 525 41,000  Level FlightAware Transoceanic
Fri 12:55:00 AM 37.1063 150.2997 246° West 456 525 41,000  Level FlightAware Transoceanic
Fri 12:56:00 AM 37.0532 150.1497 246° West 456 525 41,000  Level FlightAware Transoceanic
Fri 12:57:00 AM 37.0006 150.0016 246° West  Level FlightAware Approximate
Fri 12:58:00 AM 36.9480 149.8535 246° West  Level FlightAware Approximate
Fri 12:59:00 AM 36.9889 149.8421 265° West  Level FlightAware Approximate
Fri 01:00:00 AM 36.9774 149.6806 265° West  Level FlightAware Approximate
Fri 01:01:00 AM 36.9656 149.5193 265° West  Level FlightAware Approximate
Fri 01:02:00 AM 36.9536 149.3580 265° West  Level FlightAware Approximate
Fri 01:03:00 AM 36.9414 149.1967 265° West  Level FlightAware Approximate
Fri 01:04:00 AM 36.9290 149.0355 265° West  Level FlightAware Approximate
Fri 01:05:00 AM 36.9163 148.8743 264° West  Level FlightAware Approximate
Fri 01:06:00 AM 36.9035 148.7133 264° West  Level FlightAware Approximate
Fri 01:07:00 AM 36.8904 148.5522 264° West  Level FlightAware Approximate
Fri 01:08:00 AM 36.8678 148.3933 255° West  Level FlightAware Approximate
Fri 01:09:00 AM 36.8346 148.2370 255° West  Level FlightAware Approximate
Fri 01:10:00 AM 36.8012 148.0807 255° West  Level FlightAware Approximate
Fri 01:11:00 AM 36.7676 147.9246 255° West  Level FlightAware Approximate
Fri 01:12:00 AM 36.7338 147.7687 255° West  Level FlightAware Approximate
Fri 01:13:00 AM 36.6998 147.6129 255° West  Level FlightAware Approximate
Fri 01:14:00 AM 36.6656 147.4572 255° West  Level FlightAware Approximate
Fri 01:15:00 AM 36.6311 147.3016 255° West  Level FlightAware Approximate
Fri 01:16:00 AM 36.5965 147.1460 255° West  Level FlightAware Approximate
Fri 01:17:00 AM 36.5616 146.9905 254° West  Level FlightAware Approximate
Fri 01:18:00 AM 36.5265 146.8352 254° West  Level FlightAware Approximate
Fri 01:19:00 AM 36.4912 146.6799 254° West  Level FlightAware Approximate
Fri 01:20:00 AM 36.4557 146.5249 254° West  Level FlightAware Approximate
Fri 01:21:00 AM 36.4201 146.3699 254° West  Level FlightAware Approximate
Fri 01:22:00 AM 36.3788 146.2174 248° West  Level FlightAware Approximate
Fri 01:23:00 AM 36.3306 146.0680 248° West  Level FlightAware Approximate
Fri 01:24:00 AM 36.2823 145.9187 248° West  Level FlightAware Approximate
Fri 01:25:00 AM 36.2337 145.7697 248° West  Level FlightAware Approximate
Fri 01:26:00 AM 36.1882 145.6193 253° West  Level FlightAware Approximate
Fri 01:27:00 AM 36.1499 145.4659 259° West  Level FlightAware Approximate
Fri 01:28:00 AM 36.1247 145.3085 259° West  Level FlightAware Approximate
Fri 01:29:00 AM 36.0992 145.1511 259° West  Level FlightAware Approximate
Fri 01:29:05 AM 36.0210 144.6710 259° West 476 548 41,000  Level FlightAware ADS-B
Fri 01:29:53 AM 36.0050 144.5640 260° West 476 548 41,000  Level FlightAware ADS-B
Fri 01:30:25 AM 35.9900 144.4630 260° West 974 1121 41,000  Level FlightAware ADS-B
Fri 01:31:06 AM 35.9770 144.3640 261° West 478 550 41,000  Level FlightAware ADS-B
Fri 01:31:44 AM 35.9650 144.2770 260° West 478 550 41,000  Level FlightAware ADS-B
Fri 01:32:20 AM 35.9550 144.1950 261° West 478 550 41,000  Level FlightAware ADS-B
Fri 01:32:57 AM 35.9440 144.1100 261° West 478 550 41,000  Level FlightAware ADS-B
Fri 01:33:33 AM 35.9330 144.0270 261° West 478 550 41,000  Level FlightAware ADS-B
Fri 01:34:05 AM 35.9060 143.8690 258° West 481 554 41,000  Level FlightAware ADS-B
Fri 01:34:43 AM 35.8930 143.7880 259° West 480 552 41,000  Level FlightAware ADS-B
Fri 01:35:35 AM 35.8710 143.6370 260° West 479 551 41,000  Level FlightAware ADS-B
Fri 01:36:11 AM 35.8580 143.5550 259° West 479 551 41,000  Level FlightAware ADS-B
Fri 01:36:48 AM 35.8450 143.4710 259° West 479 551 41,000 -329 Level FlightAware ADS-B
Fri 01:37:24 AM 35.8270 143.3350 261° West 934 1075 40,600 -1,478 Descending FlightAware ADS-B
Fri 01:37:57 AM 35.8160 143.2580 260° West 465 535 39,300 -4,114 Descending FlightAware ADS-B
Fri 01:38:34 AM 35.8000 143.1530 259° West 475 547 35,800 -4,000 Descending FlightAware ADS-B
Fri 01:39:21 AM 35.7830 143.0360 260° West 482 555 33,700 -1,518 Descending FlightAware ADS-B
Fri 01:39:57 AM 35.7710 142.9540 260° West 482 555 33,700  Level FlightAware ADS-B
Fri 01:40:33 AM 35.7590 142.8710 260° West 482 555 33,700  Level FlightAware ADS-B
Fri 01:41:09 AM 35.7470 142.7880 260° West 482 555 33,700  Level FlightAware ADS-B
Fri 01:41:46 AM 35.7350 142.7030 260° West 482 555 33,700  Level FlightAware ADS-B
Fri 01:42:22 AM 35.7230 142.6200 260° West 482 555 33,700  Level FlightAware ADS-B
Fri 01:42:59 AM 35.7110 142.5350 260° West 482 555 33,700  Level FlightAware ADS-B
Fri 01:43:36 AM 35.6990 142.4500 260° West 482 555 33,700  Level FlightAware ADS-B
Fri 01:44:14 AM 35.6860 142.3630 260° West 482 555 33,700 -12,348 Level FlightAware ADS-B
Fri 01:44:45 AM 35.6550 142.2170 255° West 426 490 19,500 -12,529 Descending FlightAware ADS-B
Fri 01:45:22 AM 35.6430 142.1420 259° West 426 490 19,500  Level FlightAware ADS-B
Fri 01:45:58 AM 35.6320 142.0700 259° West 426 490 19,500  Level FlightAware ADS-B
Fri 01:46:34 AM 35.6200 141.9970 259° West 426 490 19,500  Level FlightAware ADS-B
Fri 01:47:11 AM 35.6080 141.9220 259° West 426 490 19,500  Level FlightAware ADS-B
Fri 01:47:47 AM 35.5970 141.8490 260° West 426 490 19,500 -2,308 Level FlightAware ADS-B
Fri 01:48:42 AM 35.5820 141.7420 260° West 339 390 16,000 -2,703 Descending FlightAware ADS-B
Fri 01:49:18 AM 35.5780 141.6740 266° West 335 386 15,400 -1,151 Descending FlightAware ADS-B
Fri 01:49:55 AM 35.5740 141.5990 266° West 331 381 14,600 -1,059 Descending FlightAware ADS-B
Fri 01:50:26 AM 35.5700 141.5370 265° West 325 374 14,200 -529 Descending FlightAware ADS-B
Fri 01:51:03 AM 35.5780 141.4720 279° West 325 374 14,000 -615 Descending FlightAware ADS-B
Fri 01:51:44 AM 35.6070 141.4050 298° West 325 374 13,400 -973 Descending FlightAware ADS-B
Fri 01:52:17 AM 35.6330 141.3470 299° West 330 380 12,800 -917 Descending FlightAware ADS-B
Fri 01:52:56 AM 35.6620 141.2840 300° West 321 369 12,300 -845 Descending FlightAware ADS-B
Fri 01:53:28 AM 35.6830 141.2370 299° West 317 365 11,800 -845 Descending FlightAware ADS-B
Fri 01:54:07 AM 35.7110 141.1730 298° West 298 343 11,300 -769 Descending FlightAware ADS-B
Fri 01:54:46 AM 35.7360 141.1180 299° West 305 351 10,800 -975 Descending FlightAware ADS-B
Fri 01:55:27 AM 35.7640 141.0550 299° West 277 319 10,000 -1,125 Descending FlightAware ADS-B
Fri 01:55:50 AM 35.7760 141.0280 299° West 279 321 9,600 -875 Descending FlightAware ADS-B
Fri 01:56:15 AM 35.7890 140.9930 295° West 270 311 9,300 -419 Descending FlightAware ADS-B
Fri 01:56:33 AM 35.8000 140.9620 294° West 265 305 9,300  Level FlightAware ADS-B
Fri 01:56:48 AM 35.8050 140.9460 291° West 262 302 9,300  Level FlightAware ADS-B
Fri 01:57:14 AM 35.8180 140.9100 294° West 264 304 9,300  Level FlightAware ADS-B
Fri 01:57:33 AM 35.8280 140.8820 294° West 257 296 9,300  Level FlightAware ADS-B
Fri 01:57:52 AM 35.8370 140.8550 292° West 260 299 9,300  Level FlightAware ADS-B
Fri 01:58:08 AM 35.8450 140.8340 295° West 261 300 9,300  Level FlightAware ADS-B
Fri 01:58:33 AM 35.8570 140.7980 292° West 258 297 9,300 -293 Level FlightAware ADS-B
Fri 01:58:49 AM 35.8630 140.7820 295° West 257 296 9,100 -1,125 Descending FlightAware ADS-B
Fri 01:59:05 AM 35.8730 140.7520 292° West 258 297 8,700 -1,200 Descending FlightAware ADS-B
Fri 01:59:29 AM 35.8850 140.7190 294° West 257 296 8,300 -545 Descending FlightAware ADS-B
Fri 01:59:49 AM 35.8940 140.6930 293° West 255 293 8,300  Level FlightAware ADS-B
Fri 02:00:01 AM 35.8990 140.6770 291° West 256 295 8,300 -353 Level FlightAware ADS-B
Fri 02:00:23 AM 35.9090 140.6470 292° West 253 291 8,100 -783 Descending FlightAware ADS-B
Fri 02:00:47 AM 35.9190 140.6180 293° West 251 289 7,700 -955 Descending FlightAware ADS-B
Fri 02:01:07 AM 35.9290 140.5890 293° West 253 291 7,400 -882 Descending FlightAware ADS-B
Fri 02:01:21 AM 35.9350 140.5710 292° West 253 291 7,200 -1,059 Descending FlightAware ADS-B
Fri 02:01:41 AM 35.9450 140.5440 295° West 254 292 6,800 -1,313 Descending FlightAware ADS-B
Fri 02:01:53 AM 35.9500 140.5280 291° West 255 293 6,500 -833 Descending FlightAware ADS-B
Fri 02:02:17 AM 35.9610 140.4950 292° West 254 292 6,300 -727 Descending FlightAware ADS-B
Fri 02:02:26 AM 35.9620 140.4830 276° West 254 292 6,100 -1,429 Descending FlightAware ADS-B
Fri 02:02:38 AM 35.9630 140.4650 274° West 255 293 5,800 -1,125 Descending FlightAware ADS-B
Fri 02:02:58 AM 35.9640 140.4360 272° West 259 298 5,500 -769 Descending FlightAware ADS-B
Fri 02:03:17 AM 35.9650 140.4070 272° West 256 295 5,300 -462 Descending FlightAware ADS-B
Fri 02:03:37 AM 35.9660 140.3800 273° West 247 284 5,200 -571 Descending FlightAware ADS-B
Fri 02:03:59 AM 35.9680 140.3480 274° West 240 276 4,900 -833 Descending FlightAware ADS-B
Fri 02:04:13 AM 35.9680 140.3300 270° West 234 269 4,700 -511 Descending FlightAware ADS-B
Fri 02:04:46 AM 35.9630 140.2930 261° West 216 249 4,500 -577 Descending FlightAware ADS-B
Fri 02:05:05 AM 35.9480 140.2750 224° Southwest 209 241 4,200 -783 Descending FlightAware ADS-B
Fri 02:05:09 AM 35.9440 140.2720 211° Southwest 210 242 4,200 -429 Level FlightAware ADS-B
Fri 02:05:19 AM 35.9350 140.2700 190° South 208 239 4,100 -643 Descending FlightAware ADS-B
Fri 02:05:37 AM 35.9180 140.2690 183° South 200 230 3,900 -682 Descending FlightAware ADS-B
Fri 02:06:03 AM 35.8970 140.2800 157° South 188 216 3,600 -913 Descending FlightAware ADS-B
Fri 02:06:23 AM 35.8820 140.2900 152° Southeast 186 214 3,200 -1,050 Descending FlightAware ADS-B
Fri 02:06:43 AM 35.8670 140.3010 149° Southeast 188 216 2,900 -1,050 Descending FlightAware ADS-B
Fri 02:07:03 AM 35.8530 140.3120 148° Southeast 179 206 2,500 -1,500 Descending FlightAware ADS-B
Fri 02:07:23 AM 35.8390 140.3220 150° Southeast 170 196 1,900 -1,667 Descending FlightAware ADS-B
Fri 02:07:39 AM 35.8270 140.3300 152° Southeast 158 182 1,500 -947 Descending FlightAware ADS-B
Fri 02:08:01 AM 35.8140 140.3400 148° Southeast 153 176 1,300 -706 Descending FlightAware ADS-B
Fri 02:08:13 AM 35.8070 140.3450 150° Southeast 154 177 1,100 -727 Descending FlightAware ADS-B
Fri 02:08:34 AM 35.7950 140.3540 149° Southeast 149 171 900 -667 Descending FlightAware ADS-B
Fri 02:08:58 AM 35.7810 140.3630 152° Southeast 145 167 600 -327 Descending FlightAware ADS-B
Fri 02:09:29 AM 35.7650 140.3750 149° Southeast 146 168 600  Level FlightAware ADS-B
Fri 02:12:00 AM 35.7500 140.3833 253° West  Level FlightAware Approximate
Fri 02:13:00 AM 35.7647 140.3864 253° West  Level Estimated
Fri 02:14:00 AM 35.7647 140.3864 253° West  Level Estimated

Login

Don't have an account? Register now (free) for customized features, flight alerts, and more!